Time;durP1;ratioP1;P1;durP2;ratioP2;P2;SDS_P1;SDS_P2;PMS_P1;PMS_P2;Temp;Humidity;BMP_temperature;BMP_pressure;BME280_temperature;BME280_humidity;BME280_pressure;Samples;Min_cycle;Max_cycle;Signal;HPM_P1;HPM_P2
2021/03/01 00:01:30;;;;;;;;;;;;;;;29.30;24.45;101814.22;5119886;28;832;-26
2021/03/01 00:03:55;;;;;;;;;;;;;;;29.11;24.89;101810.88;5118936;28;985;-28
2021/03/01 00:06:21;;;;;;;;;;;;;;;29.38;24.88;101807.97;5119701;28;1957;-25
2021/03/01 00:08:46;;;;;;;;;;;;;;;29.52;25.17;101812.66;5119636;28;798;-28
2021/03/01 00:11:11;;;;;;;;;;;;;;;29.53;25.23;101808.94;5119361;28;868;-26
2021/03/01 00:13:36;;;;;;;;;;;;;;;29.58;25.26;101808.41;5119934;28;721;-26
2021/03/01 00:16:02;;;;;;;;;;;;;;;29.01;26.43;101805.63;5119563;28;800;-27
2021/03/01 00:18:27;;;;;;;;;;;;;;;29.37;25.17;101804.41;5118855;28;1522;-26
2021/03/01 00:20:52;;;;;;;;;;;;;;;29.22;25.41;101798.84;5119220;28;894;-26
2021/03/01 00:23:18;;;;;;;;;;;;;;;29.55;25.65;101793.34;5119380;28;818;-28
2021/03/01 00:25:43;;;;;;;;;;;;;;;29.42;25.94;101795.75;5119027;28;1901;-25
2021/03/01 00:28:09;;;;;;;;;;;;;;;29.62;25.62;101784.53;5119266;28;797;-25
2021/03/01 00:30:34;;;;;;;;;;;;;;;29.68;25.54;101786.53;5119088;28;827;-25
2021/03/01 00:32:59;;;;;;;;;;;;;;;29.50;25.95;101781.31;5119006;28;945;-29
2021/03/01 00:35:25;;;;;;;;;;;;;;;29.51;25.80;101774.88;5119315;28;799;-25
2021/03/01 00:37:51;;;;;;;;;;;;;;;29.42;25.56;101772.22;5119244;28;870;-25
2021/03/01 00:40:17;;;;;;;;;;;;;;;29.53;26.05;101775.56;5119076;28;846;-26
2021/03/01 00:42:42;;;;;;;;;;;;;;;29.75;25.74;101768.53;5118205;28;1067;-26
2021/03/01 00:45:07;;;;;;;;;;;;;;;29.73;25.83;101764.34;5119087;28;1909;-29
2021/03/01 00:47:33;;;;;;;;;;;;;;;29.85;25.71;101762.91;5119064;28;833;-26
2021/03/01 00:49:58;;;;;;;;;;;;;;;29.80;25.90;101760.72;5136975;27;949;-26
2021/03/01 00:52:25;;;;;;;;;;;;;;;29.66;25.65;101764.19;5139591;27;782;-25
2021/03/01 00:54:50;;;;;;;;;;;;;;;29.61;25.31;101755.75;5139119;27;822;-29
2021/03/01 00:57:15;;;;;;;;;;;;;;;29.41;26.38;101762.38;5138826;27;865;-24
2021/03/01 00:59:40;;;;;;;;;;;;;;;29.44;26.53;101763.91;5139393;27;739;-25
2021/03/01 01:02:06;;;;;;;;;;;;;;;29.67;26.08;101755.03;5139503;27;810;-26
2021/03/01 01:04:31;;;;;;;;;;;;;;;29.90;25.93;101757.78;5138077;27;981;-25
2021/03/01 01:06:56;;;;;;;;;;;;;;;29.63;26.33;101751.81;5139142;27;1914;-27
2021/03/01 01:09:22;;;;;;;;;;;;;;;29.57;26.20;101741.66;5139077;27;854;-26
2021/03/01 01:11:47;;;;;;;;;;;;;;;29.31;26.27;101738.16;5138240;27;853;-25
2021/03/01 01:14:12;;;;;;;;;;;;;;;29.72;26.09;101736.38;5139120;27;770;-28
2021/03/01 01:16:38;;;;;;;;;;;;;;;29.86;26.22;101733.91;5135348;27;1588;-27
2021/03/01 01:19:05;;;;;;;;;;;;;;;29.88;26.19;101743.56;5128468;27;929;-26
2021/03/01 01:21:30;;;;;;;;;;;;;;;29.76;26.02;101731.44;5138702;27;822;-26
2021/03/01 01:23:55;;;;;;;;;;;;;;;29.78;26.02;101734.81;5138925;27;795;-27
2021/03/01 01:26:20;;;;;;;;;;;;;;;29.65;26.16;101728.09;5138162;27;1905;-26
2021/03/01 01:28:46;;;;;;;;;;;;;;;29.65;26.76;101728.09;5138793;27;798;-25
2021/03/01 01:31:11;;;;;;;;;;;;;;;29.77;26.42;101725.84;5138699;27;823;-25
2021/03/01 01:33:36;;;;;;;;;;;;;;;29.78;26.37;101727.50;5137973;27;999;-27
2021/03/01 01:36:01;;;;;;;;;;;;;;;30.04;26.05;101731.78;5138748;27;810;-28
2021/03/01 01:38:27;;;;;;;;;;;;;;;29.92;26.00;101723.22;5138446;27;739;-27
2021/03/01 01:40:52;;;;;;;;;;;;;;;29.82;25.62;101725.28;5138080;27;1042;-27
2021/03/01 01:43:17;;;;;;;;;;;;;;;29.58;25.87;101711.66;5133713;27;1130;-29
2021/03/01 01:45:43;;;;;;;;;;;;;;;29.48;26.51;101713.72;5117741;28;1909;-29
2021/03/01 01:48:08;;;;;;;;;;;;;;;29.63;26.40;101713.84;5117347;28;973;-27
2021/03/01 01:50:34;;;;;;;;;;;;;;;29.78;26.21;101713.94;5117860;28;866;-26
2021/03/01 01:52:59;;;;;;;;;;;;;;;29.89;26.00;101710.00;5117249;28;870;-27
2021/03/01 01:55:24;;;;;;;;;;;;;;;29.88;25.85;101707.47;5117092;28;835;-28
2021/03/01 01:57:50;;;;;;;;;;;;;;;29.71;26.00;101710.28;5116534;28;838;-27
2021/03/01 02:03:08;;;;;;;;;;;;;;;29.56;26.43;101700.13;5116693;28;997;-27
2021/03/01 02:05:34;;;;;;;;;;;;;;;29.56;26.66;101710.97;5116317;28;1902;-26
2021/03/01 02:08:02;;;;;;;;;;;;;;;29.85;25.87;101714.09;5117302;28;752;-26
2021/03/01 02:10:31;;;;;;;;;;;;;;;29.90;25.75;101717.09;5117526;28;767;-28
2021/03/01 02:12:58;;;;;;;;;;;;;;;29.72;25.70;101716.53;5117492;28;759;-26
2021/03/01 02:15:42;;;;;;;;;;;;;;;29.40;26.13;101701.06;5115442;28;771;-28
2021/03/01 02:18:08;;;;;;;;;;;;;;;29.72;25.99;101709.25;5116277;28;1671;-27
2021/03/01 02:20:33;;;;;;;;;;;;;;;29.77;26.16;101711.41;5116039;28;811;-27
2021/03/01 02:22:58;;;;;;;;;;;;;;;29.66;26.17;101704.53;5117377;28;776;-28
2021/03/01 02:25:25;;;;;;;;;;;;;;;29.90;25.78;101705.41;5116932;28;1897;-26
2021/03/01 02:27:51;;;;;;;;;;;;;;;29.45;21.12;101693.25;5117497;28;794;-27
2021/03/01 02:30:30;;;;;;;;;;;;;;;29.17;21.32;101690.13;5116133;28;831;-28
2021/03/01 02:32:57;;;;;;;;;;;;;;;29.42;22.04;101699.03;5116615;28;977;-27
2021/03/01 02:35:22;;;;;;;;;;;;;;;29.49;23.45;101696.44;5117278;28;814;-28
2021/03/01 02:37:48;;;;;;;;;;;;;;;29.81;22.89;101693.78;5117555;28;798;-27
2021/03/01 02:40:13;;;;;;;;;;;;;;;29.96;22.75;101695.72;5115203;28;791;-26
2021/03/01 02:42:38;;;;;;;;;;;;;;;29.80;22.90;101692.94;5117276;28;1379;-26
2021/03/01 02:45:04;;;;;;;;;;;;;;;29.65;23.14;101695.56;5115978;28;1965;-28
2021/03/01 02:47:30;;;;;;;;;;;;;;;29.39;23.38;101683.13;5116723;28;715;-29
2021/03/01 02:49:55;;;;;;;;;;;;;;;29.43;23.82;101678.16;5133713;28;1077;-26
2021/03/01 02:52:21;;;;;;;;;;;;;;;29.72;23.40;101679.41;5137750;28;830;-26
2021/03/01 02:54:46;;;;;;;;;;;;;;;29.79;23.50;101685.81;5135875;28;826;-27
2021/03/01 02:57:11;;;;;;;;;;;;;;;29.88;23.49;101692.03;5137920;28;826;-26
2021/03/01 02:59:37;;;;;;;;;;;;;;;29.78;23.50;101677.88;5136409;28;802;-26
2021/03/01 03:02:02;;;;;;;;;;;;;;;29.63;23.87;101678.59;5137387;28;778;-25
2021/03/01 03:04:28;;;;;;;;;;;;;;;29.52;24.32;101687.97;5135988;28;1012;-26
2021/03/01 03:06:53;;;;;;;;;;;;;;;29.65;24.28;101692.00;5137515;28;1930;-26
2021/03/01 03:09:18;;;;;;;;;;;;;;;29.82;23.73;101690.88;5135598;28;821;-25
2021/03/01 03:11:44;;;;;;;;;;;;;;;29.96;23.72;101693.84;5137545;28;811;-25
2021/03/01 03:14:09;;;;;;;;;;;;;;;29.61;24.35;101696.94;5137220;28;1441;-26
2021/03/01 03:16:35;;;;;;;;;;;;;;;29.69;23.75;101696.03;5133788;28;1573;-27
2021/03/01 03:19:00;;;;;;;;;;;;;;;29.45;24.12;101689.69;5125984;28;946;-29
2021/03/01 03:21:25;;;;;;;;;;;;;;;29.53;24.42;101689.63;5137422;28;775;-26
2021/03/01 03:23:50;;;;;;;;;;;;;;;29.81;24.02;101691.06;5136812;28;785;-25
2021/03/01 03:26:16;;;;;;;;;;;;;;;29.89;23.81;101688.31;5135817;27;1901;-25
2021/03/01 03:28:42;;;;;;;;;;;;;;;29.94;23.93;101694.03;5140661;27;727;-26
2021/03/01 03:31:07;;;;;;;;;;;;;;;29.61;24.11;101696.09;5140291;27;893;-26
2021/03/01 03:33:32;;;;;;;;;;;;;;;29.60;23.63;101697.09;5140790;27;948;-26
2021/03/01 03:35:58;;;;;;;;;;;;;;;29.54;24.72;101706.75;5141025;27;747;-27
2021/03/01 03:38:26;;;;;;;;;;;;;;;29.74;24.49;101709.06;5138847;27;1038;-27
2021/03/01 03:40:53;;;;;;;;;;;;;;;29.86;24.37;101695.94;5139504;27;526;-26
2021/03/01 03:43:19;;;;;;;;;;;;;;;29.93;24.14;101694.19;5135821;27;1298;-27
2021/03/01 03:45:44;;;;;;;;;;;;;;;29.72;24.48;101697.53;5118453;28;1976;-25
2021/03/01 03:48:10;;;;;;;;;;;;;;;29.58;24.46;101698.09;5120279;28;993;-28
2021/03/01 03:50:35;;;;;;;;;;;;;;;29.32;24.65;101693.81;5118534;28;1332;-30
2021/03/01 03:53:10;;;;;;;;;;;;;;;29.66;24.76;101694.53;5118425;28;802;-27
2021/03/01 03:55:35;;;;;;;;;;;;;;;29.61;24.68;101698.81;5118573;28;1290;-25
2021/03/01 03:58:02;;;;;;;;;;;;;;;29.69;24.95;101698.75;5118715;28;850;-27
2021/03/01 04:00:28;;;;;;;;;;;;;;;29.84;24.35;101690.72;5119555;28;740;-28
2021/03/01 04:02:54;;;;;;;;;;;;;;;29.78;24.25;101694.97;5119669;28;1017;-27
2021/03/01 04:05:20;;;;;;;;;;;;;;;29.48;24.97;101696.63;5118758;28;1901;-26
2021/03/01 04:07:46;;;;;;;;;;;;;;;29.52;25.35;101700.66;5119060;28;842;-28
2021/03/01 04:10:11;;;;;;;;;;;;;;;29.47;25.58;101698.50;5118498;28;811;-26
2021/03/01 04:12:38;;;;;;;;;;;;;;;29.68;25.15;101705.19;5119566;28;798;-26
2021/03/01 04:15:04;;;;;;;;;;;;;;;29.78;25.40;101715.84;5119396;28;550;-29
2021/03/01 04:17:29;;;;;;;;;;;;;;;29.26;21.42;101702.63;5119857;28;1628;-32
2021/03/01 04:19:54;;;;;;;;;;;;;;;26.04;16.46;101709.13;5119048;28;938;-26
2021/03/01 04:22:20;;;;;;;;;;;;;;;25.07;18.91;101696.78;5118216;28;948;-28
2021/03/01 04:24:45;;;;;;;;;;;;;;;24.50;17.68;101692.16;5119310;28;810;-26
2021/03/01 04:27:10;;;;;;;;;;;;;;;24.63;17.60;101692.72;5118962;28;1910;-27
2021/03/01 04:29:36;;;;;;;;;;;;;;;24.51;18.22;101696.53;5119348;28;1012;-26
2021/03/01 04:32:01;;;;;;;;;;;;;;;24.08;17.90;101700.31;5119025;28;827;-26
2021/03/01 04:34:26;;;;;;;;;;;;;;;23.98;20.07;101702.13;5119372;28;997;-27
2021/03/01 04:36:52;;;;;;;;;;;;;;;23.51;18.54;101700.00;5119256;28;850;-26
2021/03/01 04:39:17;;;;;;;;;;;;;;;23.81;18.82;101696.44;5117827;28;914;-26
2021/03/01 04:41:43;;;;;;;;;;;;;;;22.88;19.95;101702.63;5118548;28;1542;-26
2021/03/01 04:44:12;;;;;;;;;;;;;;;22.21;19.63;101703.63;5119256;28;1169;-28
2021/03/01 04:46:37;;;;;;;;;;;;;;;20.72;21.38;101705.34;5117307;28;1918;-25
2021/03/01 04:49:03;;;;;;;;;;;;;;;22.04;20.21;101704.16;5117309;28;946;-26
2021/03/01 04:51:28;;;;;;;;;;;;;;;20.80;21.89;101703.78;5119326;28;798;-27
2021/03/01 04:53:54;;;;;;;;;;;;;;;22.76;20.83;101709.88;5117012;28;871;-33
2021/03/01 04:56:19;;;;;;;;;;;;;;;23.78;19.09;101712.84;5117759;28;808;-33
2021/03/01 04:58:44;;;;;;;;;;;;;;;22.18;19.68;101722.63;5118525;28;846;-29
2021/03/01 05:01:10;;;;;;;;;;;;;;;23.15;20.06;101720.03;5117135;28;814;-33
2021/03/01 05:03:35;;;;;;;;;;;;;;;23.84;20.42;101723.03;5118031;28;953;-28
2021/03/01 05:06:00;;;;;;;;;;;;;;;24.40;20.27;101727.97;5118639;28;1905;-32
2021/03/01 05:08:26;;;;;;;;;;;;;;;24.83;20.35;101723.16;5116970;28;783;-28
2021/03/01 05:10:51;;;;;;;;;;;;;;;24.94;20.21;101729.41;5118210;28;1546;-27
2021/03/01 05:13:17;;;;;;;;;;;;;;;25.19;20.11;101727.09;5118850;28;826;-32
2021/03/01 05:15:42;;;;;;;;;;;;;;;25.30;20.09;101724.22;5118379;28;866;-28
2021/03/01 05:18:07;;;;;;;;;;;;;;;25.58;20.12;101731.47;5118191;28;1695;-25
2021/03/01 05:20:33;;;;;;;;;;;;;;;25.15;20.76;101726.50;5118441;28;850;-25
2021/03/01 05:22:58;;;;;;;;;;;;;;;24.78;21.38;101735.31;5117951;28;755;-29
2021/03/01 05:25:23;;;;;;;;;;;;;;;24.62;21.74;101727.84;5118239;28;1890;-27
2021/03/01 05:27:48;;;;;;;;;;;;;;;24.75;21.68;101733.78;5118251;28;818;-25
2021/03/01 05:30:14;;;;;;;;;;;;;;;25.15;21.42;101742.66;5118109;28;775;-25
2021/03/01 05:32:39;;;;;;;;;;;;;;;25.17;21.48;101737.97;5118039;28;810;-25
2021/03/01 05:35:05;;;;;;;;;;;;;;;25.43;21.31;101734.66;5117545;28;1510;-26
2021/03/01 05:37:31;;;;;;;;;;;;;;;24.96;21.89;101742.72;5117633;28;835;-28
2021/03/01 05:39:56;;;;;;;;;;;;;;;24.97;22.12;101742.56;5118191;28;756;-27
2021/03/01 05:42:22;;;;;;;;;;;;;;;25.82;21.12;101742.72;5117995;28;1226;-25
2021/03/01 05:44:47;;;;;;;;;;;;;;;26.13;20.92;101739.69;5117812;28;1121;-28
2021/03/01 05:47:12;;;;;;;;;;;;;;;26.37;20.66;101741.00;5117933;28;1891;-27
2021/03/01 05:49:39;;;;;;;;;;;;;;;26.19;20.90;101747.19;5133575;27;851;-26
2021/03/01 05:52:04;;;;;;;;;;;;;;;25.44;21.73;101749.78;5137779;27;800;-28
2021/03/01 05:54:30;;;;;;;;;;;;;;;25.18;22.27;101757.66;5138414;27;883;-32
2021/03/01 05:56:55;;;;;;;;;;;;;;;25.63;22.00;101756.16;5137161;27;767;-29
2021/03/01 05:59:20;;;;;;;;;;;;;;;26.56;20.51;101764.25;5136431;27;819;-28
2021/03/01 06:01:46;;;;;;;;;;;;;;;26.64;20.60;101769.72;5138273;27;763;-26
2021/03/01 06:04:11;;;;;;;;;;;;;;;26.90;20.59;101776.19;5138153;27;964;-28
2021/03/01 06:06:37;;;;;;;;;;;;;;;25.88;21.56;101782.56;5137606;27;1962;-26
2021/03/01 06:09:02;;;;;;;;;;;;;;;25.39;22.24;101780.88;5138157;27;739;-28
2021/03/01 06:11:28;;;;;;;;;;;;;;;25.26;22.47;101783.88;5138078;27;787;-27
2021/03/01 06:13:53;;;;;;;;;;;;;;;26.16;21.55;101790.63;5136291;27;783;-27
2021/03/01 06:16:18;;;;;;;;;;;;;;;26.23;21.63;101788.19;5137465;27;1591;-28
2021/03/01 06:18:44;;;;;;;;;;;;;;;26.55;21.00;101792.25;5125504;27;941;-27
2021/03/01 06:21:13;;;;;;;;;;;;;;;25.70;22.08;101793.28;5137430;27;926;-26
2021/03/01 06:23:39;;;;;;;;;;;;;;;25.46;22.48;101786.53;5137965;27;737;-26
2021/03/01 06:26:26;;;;;;;;;;;;;;;25.47;22.52;101794.47;5138241;27;1969;-27
2021/03/01 06:28:51;;;;;;;;;;;;;;;25.73;22.46;101801.06;5137333;27;758;-30
2021/03/01 06:31:32;;;;;;;;;;;;;;;26.16;21.91;101798.72;5137877;28;719;-29
2021/03/01 06:34:16;;;;;;;;;;;;;;;26.28;21.82;101807.44;5137529;28;940;-26
2021/03/01 06:37:00;;;;;;;;;;;;;;;25.49;22.72;101808.63;5137509;28;786;-23
2021/03/01 06:39:41;;;;;;;;;;;;;;;25.25;23.11;101806.41;5137743;27;753;-25
2021/03/01 06:42:16;;;;;;;;;;;;;;;25.56;22.87;101800.81;5137456;28;1313;-25
2021/03/01 06:44:45;;;;;;;;;;;;;;;26.18;22.25;101812.91;5120834;28;1125;-25
2021/03/01 06:47:10;;;;;;;;;;;;;;;26.71;21.40;101807.75;5116883;28;1901;-26
2021/03/01 06:49:36;;;;;;;;;;;;;;;25.71;22.47;101806.59;5116206;28;953;-26
2021/03/01 06:52:01;;;;;;;;;;;;;;;25.38;23.10;101806.97;5116744;28;759;-25
2021/03/01 06:54:27;;;;;;;;;;;;;;;25.57;22.97;101802.53;5117098;28;749;-25
2021/03/01 06:56:52;;;;;;;;;;;;;;;26.60;21.71;101813.38;5116601;28;854;-27
2021/03/01 06:59:18;;;;;;;;;;;;;;;26.95;21.18;101805.41;5116592;28;786;-26
2021/03/01 07:01:49;;;;;;;;;;;;;;;27.09;21.03;101809.47;5117411;28;751;-27
2021/03/01 07:04:22;;;;;;;;;;;;;;;26.10;22.28;101810.97;5120620;28;1013;-26
2021/03/01 07:06:47;;;;;;;;;;;;;;;25.61;22.82;101817.38;5120636;28;1905;-26
2021/03/01 07:09:13;;;;;;;;;;;;;;;26.14;22.38;101825.00;5119246;28;841;-27
2021/03/01 07:11:39;;;;;;;;;;;;;;;26.24;22.27;101819.56;5120907;28;851;-27
2021/03/01 07:14:05;;;;;;;;;;;;;;;26.69;21.81;101820.56;5120193;28;878;-29
2021/03/01 07:16:53;;;;;;;;;;;;;;;26.04;22.47;101817.81;5120708;28;1659;-28
2021/03/01 07:19:19;;;;;;;;;;;;;;;25.70;22.78;101813.00;5113526;28;1492;-26
2021/03/01 07:21:48;;;;;;;;;;;;;;;25.97;22.70;101811.31;5120308;28;834;-27
2021/03/01 07:24:17;;;;;;;;;;;;;;;26.31;22.10;101811.72;5120621;28;814;-30
2021/03/01 07:26:43;;;;;;;;;;;;;;;26.88;21.70;101816.00;5120635;28;1971;-27
2021/03/01 07:29:09;;;;;;;;;;;;;;;26.06;22.49;101814.13;5120191;28;731;-27
2021/03/01 07:31:35;;;;;;;;;;;;;;;25.85;22.75;101810.66;5120312;28;729;-28
2021/03/01 07:34:07;;;;;;;;;;;;;;;26.23;22.24;101818.69;5120421;28;986;-27
2021/03/01 07:36:32;;;;;;;;;;;;;;;26.48;21.93;101807.34;5120177;28;832;-28
2021/03/01 07:38:58;;;;;;;;;;;;;;;26.44;22.14;101814.06;5120034;28;774;-26
2021/03/01 07:41:24;;;;;;;;;;;;;;;25.92;22.74;101808.22;5120252;28;1274;-26
2021/03/01 07:43:49;;;;;;;;;;;;;;;25.61;23.04;101805.78;5119883;28;1165;-26
2021/03/01 07:46:14;;;;;;;;;;;;;;;25.99;22.84;101806.59;5118843;28;1913;-26
2021/03/01 07:48:42;;;;;;;;;;;;;;;26.79;21.79;101801.59;5127705;27;1052;-27
2021/03/01 07:51:08;;;;;;;;;;;;;;;26.74;22.06;101801.22;5140583;27;934;-27
2021/03/01 07:53:45;;;;;;;;;;;;;;;26.76;21.58;101782.97;5140336;27;806;-26
2021/03/01 07:56:39;;;;;;;;;;;;;;;25.97;22.47;101794.28;5140928;27;751;-27
2021/03/01 07:59:08;;;;;;;;;;;;;;;25.57;22.93;101797.13;5126232;27;1572;-26
2021/03/01 08:01:33;;;;;;;;;;;;;;;25.44;23.45;101795.59;5140333;27;743;-25
2021/03/01 08:03:59;;;;;;;;;;;;;;;25.83;23.02;101801.00;5139951;27;933;-26
2021/03/01 08:06:24;;;;;;;;;;;;;;;26.59;21.98;101800.91;5138599;27;2028;-27
2021/03/01 08:08:50;;;;;;;;;;;;;;;25.94;22.65;101813.47;5140435;27;742;-27
2021/03/01 08:11:35;;;;;;;;;;;;;;;25.54;23.16;101809.03;5140736;27;746;-27
2021/03/01 08:14:01;;;;;;;;;;;;;;;26.11;22.62;101823.44;5139352;27;937;-28
2021/03/01 08:16:26;;;;;;;;;;;;;;;25.51;23.10;101824.63;5138936;27;1663;-27
2021/03/01 08:18:52;;;;;;;;;;;;;;;25.66;22.79;101820.53;5128593;27;949;-28
2021/03/01 08:21:17;;;;;;;;;;;;;;;25.40;23.13;101828.34;5139445;27;828;-29
2021/03/01 08:23:48;;;;;;;;;;;;;;;24.79;24.23;101831.22;5140199;27;747;-33
2021/03/01 08:26:29;;;;;;;;;;;;;;;25.13;23.81;101828.13;5139961;27;1901;-29
2021/03/01 08:28:55;;;;;;;;;;;;;;;25.48;23.18;101838.41;5139896;27;739;-28
2021/03/01 08:31:21;;;;;;;;;;;;;;;25.62;22.46;101840.66;5140004;27;794;-30
2021/03/01 08:33:46;;;;;;;;;;;;;;;25.46;23.32;101835.84;5139474;27;1409;-31
2021/03/01 08:36:12;;;;;;;;;;;;;;;25.22;23.75;101834.50;5138415;27;778;-30
2021/03/01 08:38:40;;;;;;;;;;;;;;;24.85;24.22;101836.03;5140061;27;759;-28
2021/03/01 08:41:06;;;;;;;;;;;;;;;25.36;23.46;101837.75;5139116;27;1249;-28
2021/03/01 08:43:32;;;;;;;;;;;;;;;25.62;22.99;101843.34;5133145;27;1050;-26
2021/03/01 08:45:57;;;;;;;;;;;;;;;25.36;23.34;101843.13;5119048;28;2076;-27
2021/03/01 08:48:22;;;;;;;;;;;;;;;24.86;24.12;101829.66;5118793;28;997;-29
2021/03/01 08:50:48;;;;;;;;;;;;;;;25.47;23.38;101840.25;5118666;28;835;-30
2021/03/01 08:53:19;;;;;;;;;;;;;;;25.70;23.01;101839.94;5118694;28;822;-32
2021/03/01 08:55:44;;;;;;;;;;;;;;;26.34;22.38;101839.25;5118466;28;796;-27
2021/03/01 08:58:12;;;;;;;;;;;;;;;25.92;22.61;101840.56;5118465;28;848;-29
2021/03/01 09:00:38;;;;;;;;;;;;;;;25.61;22.90;101843.50;5116845;28;833;-30
2021/03/01 09:03:22;;;;;;;;;;;;;;;26.54;21.86;101847.25;5120612;27;816;-31
2021/03/01 09:05:49;;;;;;;;;;;;;;;27.16;21.26;101845.63;5139119;27;1970;-29
2021/03/01 09:08:21;;;;;;;;;;;;;;;27.40;20.83;101849.50;5138892;27;834;-29
2021/03/01 09:10:46;;;;;;;;;;;;;;;26.24;21.98;101850.06;5128305;27;1289;-29
2021/03/01 09:13:15;;;;;;;;;;;;;;;25.88;22.44;101839.16;5118131;28;747;-33
2021/03/01 09:15:41;;;;;;;;;;;;;;;26.27;22.18;101851.63;5118279;27;782;-30
2021/03/01 09:18:08;;;;;;;;;;;;;;;27.07;21.08;101858.22;5117809;28;1166;-28
2021/03/01 09:20:40;;;;;;;;;;;;;;;27.33;21.02;101852.00;5118011;28;824;-27
2021/03/01 09:23:06;;;;;;;;;;;;;;;26.47;21.54;101857.78;5118097;28;743;-31
2021/03/01 09:25:31;;;;;;;;;;;;;;;26.13;22.29;101847.56;5117663;28;1956;-29
2021/03/01 09:27:57;;;;;;;;;;;;;;;26.16;22.41;101852.66;5117702;28;775;-32
2021/03/01 09:30:22;;;;;;;;;;;;;;;25.70;23.24;101861.50;5117912;28;812;-26
2021/03/01 09:33:17;;;;;;;;;;;;;;;25.89;22.97;101854.34;5117461;28;862;-28
2021/03/01 09:35:42;;;;;;;;;;;;;;;25.94;22.71;101870.09;5104495;28;1221;-28
2021/03/01 09:38:08;;;;;;;;;;;;;;;25.73;22.76;101882.75;5116243;28;1325;-28
2021/03/01 09:40:33;;;;;;;;;;;;;;;25.87;23.02;101875.22;5117581;28;870;-27
2021/03/01 09:43:05;;;;;;;;;;;;;;;26.16;22.44;101879.63;5117409;28;1102;-31
2021/03/01 09:45:32;;;;;;;;;;;;;;;26.37;22.27;101886.66;5117842;28;1909;-30
2021/03/01 09:47:57;;;;;;;;;;;;;;;26.08;22.40;101887.59;5118872;27;1001;-27
2021/03/01 09:50:22;;;;;;;;;;;;;;;25.98;22.57;101891.19;5137965;27;818;-27
2021/03/01 09:52:48;;;;;;;;;;;;;;;26.01;22.68;101893.59;5138387;27;747;-29
2021/03/01 09:55:13;;;;;;;;;;;;;;;26.11;22.74;101890.84;5137877;27;820;-27
2021/03/01 09:57:38;;;;;;;;;;;;;;;26.00;22.80;101891.06;5137550;27;739;-29
2021/03/01 10:00:24;;;;;;;;;;;;;;;26.08;22.66;101903.78;5138417;27;771;-28
2021/03/01 10:03:08;;;;;;;;;;;;;;;25.79;22.94;101902.91;5137356;27;1085;-29
2021/03/01 10:05:33;;;;;;;;;;;;;;;26.69;21.84;101909.63;5138082;27;1898;-35
2021/03/01 10:08:02;;;;;;;;;;;;;;;26.85;21.53;101903.56;5137755;27;1523;-28
2021/03/01 10:10:40;;;;;;;;;;;;;;;26.47;22.17;101909.06;5122251;27;854;-25
2021/03/01 10:13:06;;;;;;;;;;;;;;;25.75;22.90;101912.25;5117203;28;827;-25
2021/03/01 10:15:41;;;;;;;;;;;;;;;25.67;23.22;101913.00;5116856;28;827;-25
2021/03/01 10:18:07;;;;;;;;;;;;;;;26.24;22.65;101916.66;5107107;28;1596;-26
2021/03/01 10:20:32;;;;;;;;;;;;;;;25.92;22.95;101919.59;5137970;27;874;-26
2021/03/01 10:22:57;;;;;;;;;;;;;;;26.15;22.84;101921.94;5137868;27;908;-26
2021/03/01 10:25:35;;;;;;;;;;;;;;;25.73;23.19;101925.88;5133389;27;1891;-29
2021/03/01 10:28:01;;;;;;;;;;;;;;;25.46;23.44;101916.66;5117252;28;815;-29
2021/03/01 10:30:26;;;;;;;;;;;;;;;26.01;22.71;101917.88;5117268;28;834;-26
2021/03/01 10:33:02;;;;;;;;;;;;;;;25.60;23.50;101922.59;5117182;28;981;-28
2021/03/01 10:35:27;;;;;;;;;;;;;;;25.87;22.02;101924.59;5137850;28;791;-25
2021/03/01 10:38:12;;;;;;;;;;;;;;;24.67;22.78;101930.03;5139918;27;861;-26
2021/03/01 10:40:38;;;;;;;;;;;;;;;23.12;24.41;101919.75;5126215;27;1343;-27
2021/03/01 10:43:10;;;;;;;;;;;;;;;22.94;23.82;101916.75;5120884;28;1306;-28
2021/03/01 10:45:39;;;;;;;;;;;;;;;22.35;27.38;101914.25;5121135;28;1909;-26
2021/03/01 10:48:05;;;;;;;;;;;;;;;22.37;29.66;101920.34;5120639;28;954;-24
2021/03/01 10:50:30;;;;;;;;;;;;;;;21.51;28.34;101918.84;5121326;28;827;-26
2021/03/01 10:52:55;;;;;;;;;;;;;;;21.56;28.75;101914.94;5121021;28;799;-27
2021/03/01 10:55:21;;;;;;;;;;;;;;;19.64;31.31;101922.13;5120823;28;803;-24
2021/03/01 10:57:46;;;;;;;;;;;;;;;21.42;29.52;101922.19;5121402;28;740;-24
2021/03/01 11:00:11;;;;;;;;;;;;;;;22.48;26.85;101926.66;5121367;28;786;-24
2021/03/01 11:02:37;;;;;;;;;;;;;;;22.90;25.72;101922.50;5120663;28;742;-24
2021/03/01 11:05:02;;;;;;;;;;;;;;;24.34;24.70;101916.75;5120529;28;1962;-23
2021/03/01 11:07:28;;;;;;;;;;;;;;;25.04;24.04;101921.34;5120997;28;799;-24
2021/03/01 11:09:54;;;;;;;;;;;;;;;25.38;23.94;101920.09;5120309;28;1552;-24
2021/03/01 11:12:19;;;;;;;;;;;;;;;25.12;24.58;101923.34;5120561;28;1544;-25
2021/03/01 11:14:44;;;;;;;;;;;;;;;24.26;25.70;101920.13;5120720;28;793;-26
2021/03/01 11:17:11;;;;;;;;;;;;;;;24.93;25.07;101910.72;5120444;28;1650;-26
2021/03/01 11:19:36;;;;;;;;;;;;;;;25.50;24.16;101923.47;5120085;28;954;-25
2021/03/01 11:22:02;;;;;;;;;;;;;;;24.69;24.92;101922.69;5120835;28;740;-26
2021/03/01 11:24:27;;;;;;;;;;;;;;;24.17;25.46;101924.47;5120039;28;612;-25
2021/03/01 11:26:52;;;;;;;;;;;;;;;25.11;24.60;101916.25;5120893;28;1906;-24
2021/03/01 11:29:18;;;;;;;;;;;;;;;25.72;23.90;101916.13;5120260;28;771;-23
2021/03/01 11:31:44;;;;;;;;;;;;;;;25.85;23.67;101926.56;5120201;28;809;-25
2021/03/01 11:34:09;;;;;;;;;;;;;;;25.92;23.48;101916.88;5119783;28;929;-25
2021/03/01 11:36:35;;;;;;;;;;;;;;;25.98;23.60;101917.31;5120314;28;813;-27
2021/03/01 11:39:00;;;;;;;;;;;;;;;25.92;23.41;101916.06;5120092;28;933;-26
2021/03/01 11:41:25;;;;;;;;;;;;;;;25.24;24.51;101910.56;5120050;28;1086;-24
2021/03/01 11:43:51;;;;;;;;;;;;;;;25.53;24.44;101911.56;5120175;28;1114;-26
2021/03/01 11:46:17;;;;;;;;;;;;;;;26.12;23.66;101918.69;5120147;28;1917;-24
2021/03/01 11:48:43;;;;;;;;;;;;;;;26.19;23.53;101909.03;5126850;27;1418;-24
2021/03/01 11:51:08;;;;;;;;;;;;;;;25.12;24.82;101919.81;5140236;27;863;-26
2021/03/01 11:53:33;;;;;;;;;;;;;;;24.81;25.35;101918.03;5140447;27;821;-24
2021/03/01 11:55:59;;;;;;;;;;;;;;;26.04;23.94;101924.81;5140253;27;739;-24
2021/03/01 11:58:24;;;;;;;;;;;;;;;26.49;23.10;101922.38;5140736;27;747;-24
2021/03/01 12:00:49;;;;;;;;;;;;;;;26.58;23.08;101926.00;5140603;27;743;-24
2021/03/01 12:03:14;;;;;;;;;;;;;;;25.97;23.71;101921.00;5139622;27;953;-28
2021/03/01 12:05:40;;;;;;;;;;;;;;;25.51;24.36;101918.91;5140403;27;1918;-30
2021/03/01 12:08:06;;;;;;;;;;;;;;;25.55;24.43;101923.91;5140681;27;743;-27
2021/03/01 12:10:31;;;;;;;;;;;;;;;25.56;24.35;101925.59;5140094;27;788;-28
2021/03/01 12:12:57;;;;;;;;;;;;;;;25.64;24.45;101929.47;5140299;27;724;-28
2021/03/01 12:15:22;;;;;;;;;;;;;;;25.31;24.55;101930.56;5140582;27;711;-27
2021/03/01 12:17:47;;;;;;;;;;;;;;;25.18;24.77;101924.63;5126681;27;1568;-28
2021/03/01 12:20:13;;;;;;;;;;;;;;;25.75;24.03;101931.13;5140155;27;810;-28
2021/03/01 12:22:38;;;;;;;;;;;;;;;25.38;24.57;101935.38;5140242;27;787;-28
2021/03/01 12:25:04;;;;;;;;;;;;;;;25.54;24.42;101938.34;5139454;27;794;-30
2021/03/01 12:27:29;;;;;;;;;;;;;;;25.36;24.55;101940.09;5139698;27;1439;-29
2021/03/01 12:29:54;;;;;;;;;;;;;;;25.19;24.69;101937.94;5139984;27;778;-27
2021/03/01 12:32:20;;;;;;;;;;;;;;;25.52;24.36;101952.97;5139384;27;822;-25
2021/03/01 12:34:45;;;;;;;;;;;;;;;25.22;24.95;101952.13;5139336;27;1000;-26
2021/03/01 12:37:11;;;;;;;;;;;;;;;25.47;24.31;101949.84;5139667;27;810;-25
2021/03/01 12:39:37;;;;;;;;;;;;;;;25.41;24.44;101948.56;5139283;27;778;-25
2021/03/01 12:42:02;;;;;;;;;;;;;;;25.83;24.16;101951.97;5139785;27;1137;-26
2021/03/01 12:44:27;;;;;;;;;;;;;;;25.26;24.78;101950.81;5125293;27;1141;-25
2021/03/01 12:46:53;;;;;;;;;;;;;;;25.79;24.14;101949.56;5118631;28;1905;-23
2021/03/01 12:49:18;;;;;;;;;;;;;;;25.36;24.49;101953.56;5118274;28;1008;-25
2021/03/01 12:51:43;;;;;;;;;;;;;;;25.30;24.56;101958.50;5119271;28;751;-25
2021/03/01 12:54:09;;;;;;;;;;;;;;;25.89;23.98;101963.00;5118120;28;867;-27